Time;durP1;ratioP1;P1;durP2;ratioP2;P2;SDS_P1;SDS_P2;PMS_P1;PMS_P2;Temp;Humidity;BMP_temperature;BMP_pressure;BME280_temperature;BME280_humidity;BME280_pressure;Samples;Min_cycle;Max_cycle;Signal;HPM_P1;HPM_P2
2022/03/02 00:02:16;;;;;;;11.75;7.30;;;0.90;99.30;;;;;;5053120;28;20178;-65
2022/03/02 00:04:42;;;;;;;11.02;7.03;;;0.90;99.30;;;;;;5053152;28;20221;-65
2022/03/02 00:07:08;;;;;;;14.32;7.60;;;0.90;99.40;;;;;;5052631;28;20633;-65
2022/03/02 00:09:33;;;;;;;16.10;7.45;;;0.90;99.30;;;;;;5051947;28;20177;-65
2022/03/02 00:11:59;;;;;;;13.30;7.30;;;0.90;99.40;;;;;;5052887;28;20190;-65
2022/03/02 00:14:24;;;;;;;13.05;7.97;;;1.00;99.50;;;;;;5052371;28;20304;-65
2022/03/02 00:16:50;;;;;;;17.75;7.95;;;1.00;99.60;;;;;;5052131;28;20181;-64
2022/03/02 00:19:17;;;;;;;13.18;7.60;;;1.00;99.70;;;;;;5050791;28;20349;-65
2022/03/02 00:21:43;;;;;;;14.02;7.25;;;1.10;99.60;;;;;;5052196;28;20542;-64
2022/03/02 00:24:08;;;;;;;12.85;7.25;;;1.00;99.60;;;;;;5052005;28;20211;-65
2022/03/02 00:26:34;;;;;;;14.90;8.05;;;1.10;99.70;;;;;;5064754;28;20745;-65
2022/03/02 00:29:00;;;;;;;13.05;7.38;;;1.10;99.90;;;;;;5051874;28;20531;-65
2022/03/02 00:31:26;;;;;;;12.07;7.20;;;1.00;99.90;;;;;;5052063;28;20211;-64
2022/03/02 00:33:52;;;;;;;15.60;8.20;;;1.00;99.90;;;;;;5052192;28;20169;-64
2022/03/02 00:36:17;;;;;;;15.48;7.80;;;1.00;99.90;;;;;;5052460;28;20586;-65
2022/03/02 00:38:43;;;;;;;14.52;8.35;;;1.00;99.90;;;;;;5052189;28;20185;-65
2022/03/02 00:41:09;;;;;;;12.32;7.30;;;1.00;99.90;;;;;;5051213;28;20251;-65
2022/03/02 00:43:34;;;;;;;13.73;7.70;;;1.00;99.90;;;;;;5051998;28;20260;-65
2022/03/02 00:46:00;;;;;;;11.73;7.57;;;1.10;99.90;;;;;;5050574;28;20236;-64
2022/03/02 00:48:26;;;;;;;12.52;7.32;;;1.00;99.90;;;;;;5051793;28;20185;-64
2022/03/02 00:50:52;;;;;;;10.88;7.28;;;1.00;99.80;;;;;;5051596;28;20204;-65
2022/03/02 00:53:17;;;;;;;12.50;6.95;;;1.10;99.90;;;;;;5051734;28;20272;-64
2022/03/02 00:55:43;;;;;;;12.95;7.22;;;1.10;99.80;;;;;;5050414;28;20231;-65
2022/03/02 00:58:08;;;;;;;12.13;7.28;;;1.10;99.70;;;;;;5052295;28;20173;-65
2022/03/02 01:00:35;;;;;;;13.77;7.22;;;1.20;99.60;;;;;;5050071;28;20189;-64
2022/03/02 01:03:00;;;;;;;12.00;7.40;;;1.20;99.40;;;;;;5050808;28;20213;-65
2022/03/02 01:05:26;;;;;;;15.07;7.78;;;1.20;99.10;;;;;;5050266;28;20207;-66
2022/03/02 01:07:51;;;;;;;11.55;7.00;;;1.20;98.90;;;;;;5051489;28;20264;-64
2022/03/02 01:10:17;;;;;;;12.68;7.18;;;1.20;98.70;;;;;;5050371;28;20189;-65
2022/03/02 01:12:43;;;;;;;16.45;7.68;;;1.30;98.70;;;;;;5051217;28;20220;-64
2022/03/02 01:15:11;;;;;;;14.52;7.35;;;1.30;98.70;;;;;;5051205;28;20714;-64
2022/03/02 01:17:37;;;;;;;10.73;6.75;;;1.30;98.60;;;;;;5051322;28;20177;-65
2022/03/02 01:20:05;;;;;;;11.75;7.63;;;1.30;98.70;;;;;;5049358;28;20190;-65
2022/03/02 01:22:31;;;;;;;12.07;7.10;;;1.20;98.70;;;;;;5051590;28;20330;-65
2022/03/02 01:24:57;;;;;;;15.35;7.95;;;1.30;99.00;;;;;;5052305;28;20704;-65
2022/03/02 01:27:23;;;;;;;14.40;7.10;;;1.20;98.90;;;;;;5050340;28;20186;-65
2022/03/02 01:29:50;;;;;;;14.50;7.25;;;1.20;99.00;;;;;;5051298;28;20173;-65
2022/03/02 01:32:17;;;;;;;13.80;7.20;;;1.20;99.10;;;;;;5050341;28;20176;-65
2022/03/02 01:34:42;;;;;;;10.05;6.55;;;1.10;99.20;;;;;;5051028;28;20206;-65
2022/03/02 01:37:08;;;;;;;11.48;6.88;;;1.10;99.10;;;;;;5050848;28;20192;-65
2022/03/02 01:39:33;;;;;;;14.93;7.70;;;1.10;99.10;;;;;;5051797;28;20264;-65
2022/03/02 01:41:59;;;;;;;14.35;7.93;;;1.10;99.20;;;;;;5051255;28;20184;-65
2022/03/02 01:44:25;;;;;;;13.70;7.35;;;1.10;99.30;;;;;;5051134;28;20174;-64
2022/03/02 01:46:50;;;;;;;11.23;7.40;;;1.00;99.30;;;;;;5051254;28;20208;-64
2022/03/02 01:49:16;;;;;;;13.27;7.38;;;1.10;99.40;;;;;;5051170;28;20186;-64
2022/03/02 01:51:42;;;;;;;13.27;7.30;;;1.00;99.40;;;;;;5050685;28;20520;-64
2022/03/02 01:54:08;;;;;;;15.43;7.72;;;1.00;99.40;;;;;;5050979;28;20231;-64
2022/03/02 01:56:34;;;;;;;17.77;9.23;;;1.00;99.30;;;;;;5051005;28;20532;-64
2022/03/02 01:59:01;;;;;;;33.78;13.70;;;1.00;99.40;;;;;;5049572;28;20530;-64
2022/03/02 02:01:27;;;;;;;49.00;18.10;;;1.00;99.40;;;;;;5050581;28;20185;-64
2022/03/02 02:03:53;;;;;;;66.63;22.90;;;1.00;99.40;;;;;;5051077;28;20244;-64
2022/03/02 02:06:19;;;;;;;41.25;15.60;;;1.00;99.20;;;;;;5051315;28;20189;-65
2022/03/02 02:08:45;;;;;;;18.58;9.20;;;0.90;99.30;;;;;;5049310;28;20246;-65
2022/03/02 02:11:12;;;;;;;63.15;21.95;;;0.90;99.40;;;;;;5045894;28;20720;-64
2022/03/02 02:13:38;;;;;;;78.18;25.23;;;1.00;99.40;;;;;;5043822;28;20178;-64
2022/03/02 02:16:05;;;;;;;37.40;13.60;;;0.90;99.30;;;;;;5049215;28;20205;-64
2022/03/02 02:18:32;;;;;;;19.23;9.00;;;0.90;99.10;;;;;;5050425;28;20173;-64
2022/03/02 02:21:05;;;;;;;11.90;7.40;;;0.80;99.30;;;;;;5048078;28;20231;-64
2022/03/02 02:23:31;;;;;;;16.98;7.15;;;0.80;98.90;;;;;;5050582;28;20257;-64
2022/03/02 02:25:57;;;;;;;16.38;8.25;;;0.80;98.90;;;;;;5062913;28;20616;-64
2022/03/02 02:28:24;;;;;;;10.98;6.68;;;0.80;99.90;;;;;;5047748;28;20181;-65
2022/03/02 02:30:53;;;;;;;11.65;7.00;;;0.80;99.30;;;;;;5053328;28;20482;-64
2022/03/02 02:33:19;;;;;;;17.77;6.60;;;0.80;98.80;;;;;;5042509;28;20672;-64
2022/03/02 02:35:44;;;;;;;12.00;7.00;;;0.80;98.70;;;;;;5052754;28;20217;-65
2022/03/02 02:38:10;;;;;;;12.55;6.85;;;0.70;98.60;;;;;;5053384;28;20231;-64
2022/03/02 02:40:36;;;;;;;10.40;6.55;;;0.70;98.40;;;;;;5047161;28;20494;-64
2022/03/02 02:43:05;;;;;;;13.32;6.97;;;0.60;98.30;;;;;;5053635;28;20514;-64
2022/03/02 02:45:30;;;;;;;11.80;6.70;;;0.60;98.40;;;;;;5049786;28;20566;-64
2022/03/02 02:47:58;;;;;;;12.18;6.63;;;0.60;98.30;;;;;;5052305;28;20186;-64
2022/03/02 02:50:30;;;;;;;11.23;6.95;;;0.60;98.10;;;;;;5053740;28;20228;-65
2022/03/02 02:52:57;;;;;;;11.95;6.97;;;0.60;98.10;;;;;;5053469;28;20268;-64
2022/03/02 02:55:28;;;;;;;13.48;6.57;;;0.60;98.20;;;;;;5053790;28;20217;-64
2022/03/02 02:57:55;;;;;;;12.48;7.07;;;0.60;98.30;;;;;;5053539;28;20700;-64
2022/03/02 03:00:25;;;;;;;10.85;6.95;;;0.60;98.50;;;;;;5053328;28;20177;-64
2022/03/02 03:02:52;;;;;;;13.27;6.70;;;0.50;98.50;;;;;;5053192;28;20296;-64
2022/03/02 03:05:20;;;;;;;16.55;6.78;;;0.50;98.70;;;;;;5054148;28;20205;-64
2022/03/02 03:07:47;;;;;;;12.95;7.40;;;0.50;99.10;;;;;;5053674;28;20178;-64
2022/03/02 03:10:13;;;;;;;14.20;7.57;;;0.40;99.30;;;;;;5053815;28;20185;-64
2022/03/02 03:12:39;;;;;;;13.07;7.05;;;0.40;99.50;;;;;;5053454;28;20185;-64
2022/03/02 03:15:09;;;;;;;12.52;7.55;;;0.40;99.70;;;;;;5053153;28;20719;-64
2022/03/02 03:17:34;;;;;;;12.82;7.15;;;0.30;99.70;;;;;;5052290;28;20182;-64
2022/03/02 03:20:00;;;;;;;84.03;26.83;;;0.30;99.90;;;;;;5052925;28;20189;-64
2022/03/02 03:22:26;;;;;;;62.42;23.02;;;0.30;99.90;;;;;;5053207;28;20182;-64
2022/03/02 03:24:51;;;;;;;27.80;12.82;;;0.30;99.90;;;;;;5057595;28;20177;-64
2022/03/02 03:27:18;;;;;;;21.70;9.43;;;0.20;99.90;;;;;;5055830;28;20212;-64
2022/03/02 03:29:43;;;;;;;17.92;8.95;;;0.10;99.90;;;;;;5052929;28;20207;-64
2022/03/02 03:32:09;;;;;;;16.52;8.48;;;0.10;99.90;;;;;;5052604;28;20170;-64
2022/03/02 03:34:34;;;;;;;16.13;7.78;;;0.00;99.90;;;;;;5052586;28;20205;-64
2022/03/02 03:37:00;;;;;;;14.77;8.10;;;0.00;99.90;;;;;;5051831;28;20192;-63
2022/03/02 03:39:26;;;;;;;13.13;7.63;;;0.00;99.90;;;;;;5052141;28;20238;-64
2022/03/02 03:41:52;;;;;;;12.53;7.10;;;-0.10;99.90;;;;;;5053172;28;20253;-64
2022/03/02 03:44:18;;;;;;;13.98;7.43;;;-0.10;99.90;;;;;;5053326;28;20273;-64
2022/03/02 03:46:43;;;;;;;16.67;7.97;;;-0.20;99.90;;;;;;5052476;28;20654;-63
2022/03/02 03:49:09;;;;;;;13.68;7.30;;;-0.20;99.90;;;;;;5051517;28;20182;-64
2022/03/02 03:51:35;;;;;;;12.17;7.27;;;-0.20;99.90;;;;;;5052443;28;20184;-64
2022/03/02 03:54:01;;;;;;;12.55;7.25;;;-0.20;99.90;;;;;;5053008;28;20181;-64
2022/03/02 03:56:28;;;;;;;12.25;6.90;;;-0.20;99.90;;;;;;5053228;28;20185;-64
2022/03/02 03:58:54;;;;;;;11.02;6.95;;;-0.20;99.90;;;;;;5052665;28;20182;-64
2022/03/02 04:01:21;;;;;;;12.88;7.20;;;-0.20;99.90;;;;;;5052366;28;20181;-64
2022/03/02 04:03:47;;;;;;;12.43;7.07;;;-0.20;99.90;;;;;;5052646;28;20655;-64
2022/03/02 04:06:12;;;;;;;13.38;7.10;;;-0.20;99.90;;;;;;5052886;28;20227;-64
2022/03/02 04:08:38;;;;;;;16.23;7.15;;;-0.20;99.90;;;;;;5052632;28;20190;-64
2022/03/02 04:11:04;;;;;;;13.13;7.03;;;-0.30;99.90;;;;;;5050510;28;20328;-64
2022/03/02 04:13:29;;;;;;;13.25;7.57;;;-0.30;99.90;;;;;;5050843;28;20724;-64
2022/03/02 04:15:55;;;;;;;9.73;6.77;;;-0.40;99.90;;;;;;5052166;28;20687;-64
2022/03/02 04:18:20;;;;;;;12.93;6.77;;;-0.30;99.90;;;;;;5052177;28;20306;-64
2022/03/02 04:20:46;;;;;;;12.50;7.22;;;-0.40;99.90;;;;;;5050804;28;20191;-64
2022/03/02 04:23:11;;;;;;;13.70;7.15;;;-0.40;99.90;;;;;;5051941;28;20256;-64
2022/03/02 04:25:37;;;;;;;13.65;8.27;;;-0.40;99.90;;;;;;5054161;28;20182;-64
2022/03/02 04:28:04;;;;;;;20.33;8.90;;;-0.40;99.90;;;;;;5052555;28;20581;-64
2022/03/02 04:30:30;;;;;;;28.23;11.63;;;-0.40;99.90;;;;;;5051665;28;20581;-64
2022/03/02 04:32:59;;;;;;;52.20;20.17;;;-0.40;99.90;;;;;;5051980;28;20232;-64
2022/03/02 04:35:25;;;;;;;36.03;14.93;;;-0.40;99.90;;;;;;5051640;28;20301;-64
2022/03/02 04:37:51;;;;;;;27.47;10.87;;;-0.40;99.90;;;;;;5052345;28;20276;-64
2022/03/02 04:40:16;;;;;;;16.70;8.65;;;-0.40;99.90;;;;;;5050794;28;20271;-64
2022/03/02 04:42:43;;;;;;;11.10;7.60;;;-0.40;99.90;;;;;;5041979;28;20184;-64
2022/03/02 04:45:10;;;;;;;14.80;7.70;;;-0.40;99.90;;;;;;5050569;28;20182;-63
2022/03/02 04:47:36;;;;;;;15.67;7.87;;;-0.40;99.90;;;;;;5051136;28;20239;-64
2022/03/02 04:50:01;;;;;;;13.70;7.43;;;-0.40;99.90;;;;;;5051990;28;20185;-64
2022/03/02 04:52:28;;;;;;;15.10;7.40;;;-0.40;99.90;;;;;;5052358;28;20577;-64
2022/03/02 04:55:05;;;;;;;15.00;7.35;;;-0.40;99.90;;;;;;5051785;28;20275;-63
2022/03/02 04:57:32;;;;;;;14.60;7.97;;;-0.40;99.90;;;;;;5052347;28;20277;-64
2022/03/02 04:59:58;;;;;;;13.35;7.18;;;-0.40;99.90;;;;;;5050868;28;20182;-63
2022/03/02 05:02:23;;;;;;;14.13;7.40;;;-0.40;99.90;;;;;;5050125;28;20238;-64
2022/03/02 05:04:49;;;;;;;12.50;7.55;;;-0.40;99.90;;;;;;5049330;28;20193;-64
2022/03/02 05:07:15;;;;;;;13.30;7.32;;;-0.40;99.90;;;;;;5049655;28;20220;-65
2022/03/02 05:09:41;;;;;;;13.55;7.35;;;-0.40;99.90;;;;;;5051125;28;20177;-64
2022/03/02 05:12:08;;;;;;;11.98;6.80;;;-0.40;99.90;;;;;;5050236;28;20656;-65
2022/03/02 05:14:33;;;;;;;12.13;7.20;;;-0.40;99.90;;;;;;5051831;28;20232;-62
2022/03/02 05:16:59;;;;;;;21.77;6.85;;;-0.40;99.90;;;;;;5051717;28;20193;-64
2022/03/02 05:19:25;;;;;;;11.63;7.10;;;-0.40;99.90;;;;;;5050625;28;20579;-64
2022/03/02 05:21:50;;;;;;;13.98;7.32;;;-0.40;99.90;;;;;;5051305;28;20193;-63
2022/03/02 05:24:16;;;;;;;13.23;7.03;;;-0.50;99.90;;;;;;5052112;28;20179;-65
2022/03/02 05:26:42;;;;;;;13.33;7.50;;;-0.50;99.90;;;;;;5055354;28;20185;-60
2022/03/02 05:29:07;;;;;;;12.63;7.63;;;-0.50;99.90;;;;;;5051040;28;20652;-62
2022/03/02 05:31:33;;;;;;;56.30;15.18;;;-0.50;99.90;;;;;;5043035;28;20541;-61
2022/03/02 05:33:59;;;;;;;72.43;25.67;;;-0.50;99.90;;;;;;5050748;28;20177;-64
2022/03/02 05:36:25;;;;;;;50.50;22.75;;;-0.50;99.90;;;;;;5051207;28;20192;-64
2022/03/02 05:38:54;;;;;;;31.60;15.88;;;-0.50;99.90;;;;;;5051914;28;20177;-64
2022/03/02 05:41:21;;;;;;;32.05;14.85;;;-0.50;99.90;;;;;;5051875;28;20276;-64
2022/03/02 05:43:47;;;;;;;24.60;11.27;;;-0.40;99.90;;;;;;5051900;28;20182;-64
2022/03/02 05:46:12;;;;;;;15.23;8.80;;;-0.40;99.90;;;;;;5051861;28;20240;-64
2022/03/02 05:48:38;;;;;;;15.40;8.75;;;-0.40;99.90;;;;;;5051947;28;20188;-64
2022/03/02 05:51:04;;;;;;;16.88;9.88;;;-0.40;99.90;;;;;;5051952;28;20173;-64
2022/03/02 05:53:29;;;;;;;14.38;8.60;;;-0.30;99.90;;;;;;5051985;28;20509;-64
2022/03/02 05:55:55;;;;;;;13.75;8.32;;;-0.30;99.90;;;;;;5053165;28;20225;-64
2022/03/02 05:58:20;;;;;;;17.58;8.77;;;-0.30;99.90;;;;;;5055679;28;20213;-64
2022/03/02 06:00:46;;;;;;;18.52;9.15;;;-0.30;99.90;;;;;;5055688;28;20178;-64
2022/03/02 06:03:12;;;;;;;15.48;8.73;;;-0.20;99.90;;;;;;5055472;28;20224;-64
2022/03/02 06:05:37;;;;;;;14.95;8.60;;;-0.20;99.90;;;;;;5055578;28;20189;-64
2022/03/02 06:08:03;;;;;;;16.50;9.20;;;-0.20;99.90;;;;;;5055618;28;20173;-64
2022/03/02 06:10:29;;;;;;;13.15;7.88;;;-0.20;99.90;;;;;;5055399;28;20185;-64
2022/03/02 06:12:55;;;;;;;14.20;7.93;;;-0.10;99.90;;;;;;5055680;28;20185;-64
2022/03/02 06:15:21;;;;;;;12.63;7.03;;;-0.10;99.90;;;;;;5055321;28;20341;-64
2022/03/02 06:17:47;;;;;;;15.00;7.97;;;-0.10;99.90;;;;;;5055440;28;20182;-64
2022/03/02 06:20:13;;;;;;;19.20;6.95;;;0.00;99.90;;;;;;5054125;28;20188;-64
2022/03/02 06:22:39;;;;;;;13.73;7.30;;;0.00;99.90;;;;;;5055225;28;20637;-64
2022/03/02 06:25:07;;;;;;;13.50;7.53;;;0.10;99.90;;;;;;5062502;28;20168;-64
2022/03/02 06:27:34;;;;;;;13.68;7.55;;;0.10;99.90;;;;;;5075160;28;20173;-64
2022/03/02 06:29:59;;;;;;;11.48;7.10;;;0.10;99.90;;;;;;5075225;28;20173;-64
2022/03/02 06:32:25;;;;;;;12.05;6.85;;;0.20;99.90;;;;;;5075238;28;20230;-64
2022/03/02 06:34:50;;;;;;;13.18;7.45;;;0.20;99.90;;;;;;5074877;28;20254;-64
2022/03/02 06:37:17;;;;;;;13.52;6.93;;;0.30;99.90;;;;;;5075111;28;20264;-64
2022/03/02 06:39:42;;;;;;;20.85;7.22;;;0.30;99.90;;;;;;5074890;28;20173;-64
2022/03/02 06:42:18;;;;;;;11.27;7.10;;;0.30;99.90;;;;;;5075059;28;20717;-64
2022/03/02 06:44:55;;;;;;;14.20;7.63;;;0.40;99.90;;;;;;5074813;28;20176;-64
2022/03/02 06:47:46;;;;;;;14.25;7.35;;;0.30;99.90;;;;;;5074872;28;20199;-64
2022/03/02 06:50:12;;;;;;;12.88;7.03;;;0.40;99.90;;;;;;5073585;28;20216;-64
2022/03/02 06:52:43;;;;;;;15.23;7.45;;;0.40;99.90;;;;;;5074776;28;20180;-64
2022/03/02 06:55:11;;;;;;;14.13;7.57;;;0.40;99.90;;;;;;5074729;28;20217;-64
2022/03/02 06:57:38;;;;;;;19.33;8.25;;;0.40;99.90;;;;;;5074636;28;20548;-64
2022/03/02 07:00:06;;;;;;;13.90;7.93;;;0.40;99.90;;;;;;5074438;28;20715;-64
2022/03/02 07:02:43;;;;;;;14.52;8.55;;;0.50;99.90;;;;;;5074368;28;20358;-64
2022/03/02 07:05:10;;;;;;;11.88;7.35;;;0.50;99.90;;;;;;5074554;28;20540;-65
2022/03/02 07:07:37;;;;;;;15.05;7.60;;;0.50;99.90;;;;;;5072388;28;20209;-64
2022/03/02 07:10:05;;;;;;;11.18;7.10;;;0.50;99.90;;;;;;5074495;28;20217;-64
2022/03/02 07:12:31;;;;;;;15.95;8.25;;;0.60;99.90;;;;;;5074249;28;20185;-64
2022/03/02 07:14:57;;;;;;;16.70;8.13;;;0.60;99.90;;;;;;5074437;28;20220;-64
2022/03/02 07:17:24;;;;;;;14.27;7.63;;;0.70;99.90;;;;;;5074402;28;20177;-64
2022/03/02 07:19:50;;;;;;;16.50;7.30;;;0.80;99.90;;;;;;5074179;28;20180;-64
2022/03/02 07:22:18;;;;;;;13.85;7.82;;;0.90;99.90;;;;;;5074377;28;20172;-64
2022/03/02 07:24:54;;;;;;;15.50;6.97;;;0.90;99.90;;;;;;5069861;28;20174;-64
2022/03/02 07:27:21;;;;;;;15.15;7.45;;;1.00;99.90;;;;;;5054224;28;20185;-64
2022/03/02 07:29:52;;;;;;;10.52;6.85;;;1.10;99.90;;;;;;5054212;28;20185;-64
2022/03/02 07:32:23;;;;;;;12.50;7.18;;;1.10;99.90;;;;;;5054227;28;20186;-64
2022/03/02 07:34:55;;;;;;;13.25;6.78;;;1.10;99.90;;;;;;5053722;28;20251;-64
2022/03/02 07:37:22;;;;;;;13.88;6.88;;;1.20;99.90;;;;;;5054016;28;20681;-64
2022/03/02 07:39:48;;;;;;;9.40;6.57;;;1.20;99.90;;;;;;5053791;28;20185;-64
2022/03/02 07:42:14;;;;;;;14.70;7.03;;;1.30;99.90;;;;;;5053934;28;20193;-64
2022/03/02 07:44:41;;;;;;;14.82;7.68;;;1.40;99.90;;;;;;5053802;28;20173;-64
2022/03/02 07:47:07;;;;;;;11.82;7.55;;;1.50;99.90;;;;;;5053737;28;20188;-64
2022/03/02 07:49:33;;;;;;;13.63;6.80;;;1.50;99.90;;;;;;5053755;28;20178;-64
2022/03/02 07:52:03;;;;;;;13.02;7.07;;;1.50;99.90;;;;;;5053732;28;20170;-64
2022/03/02 07:54:30;;;;;;;14.93;7.80;;;1.60;99.90;;;;;;5053466;28;20201;-64
2022/03/02 07:56:57;;;;;;;13.25;7.30;;;1.60;99.90;;;;;;5053583;28;20174;-64
2022/03/02 07:59:23;;;;;;;12.63;7.00;;;1.70;99.90;;;;;;5053603;28;20243;-64
2022/03/02 08:01:48;;;;;;;14.27;7.30;;;1.70;99.80;;;;;;5053369;28;20640;-64
2022/03/02 08:04:14;;;;;;;11.32;7.03;;;1.80;99.50;;;;;;5053282;28;20723;-64
2022/03/02 08:06:41;;;;;;;12.50;6.97;;;1.80;99.50;;;;;;5053422;28;20207;-64
2022/03/02 08:09:09;;;;;;;14.18;7.13;;;1.90;99.40;;;;;;5053477;28;20193;-64
2022/03/02 08:11:40;;;;;;;10.23;6.32;;;2.00;99.10;;;;;;5053277;28;20174;-64
2022/03/02 08:14:07;;;;;;;12.35;6.45;;;2.10;99.00;;;;;;5053322;28;20185;-64
2022/03/02 08:16:33;;;;;;;11.85;6.65;;;2.10;98.60;;;;;;5053264;28;20604;-64
2022/03/02 08:19:01;;;;;;;13.10;6.75;;;2.20;98.40;;;;;;5052979;28;20193;-64
2022/03/02 08:21:29;;;;;;;14.00;7.38;;;2.30;98.50;;;;;;5053106;28;20194;-64
2022/03/02 08:23:58;;;;;;;11.20;6.55;;;2.40;98.60;;;;;;5053039;28;20177;-64
2022/03/02 08:26:25;;;;;;;10.75;6.90;;;2.50;98.40;;;;;;5070896;28;20176;-64
2022/03/02 08:28:55;;;;;;;11.35;6.60;;;2.70;97.90;;;;;;5072745;28;20318;-64
2022/03/02 08:31:23;;;;;;;11.27;6.25;;;2.90;97.20;;;;;;5072957;28;20218;-64
2022/03/02 08:33:49;;;;;;;12.38;6.28;;;3.00;96.60;;;;;;5072634;28;20540;-64
2022/03/02 08:36:15;;;;;;;13.65;6.35;;;3.10;96.00;;;;;;5072848;28;20252;-64
2022/03/02 08:38:42;;;;;;;11.02;7.05;;;3.20;95.60;;;;;;5072771;28;20234;-64
2022/03/02 08:41:12;;;;;;;10.88;6.80;;;3.30;95.00;;;;;;5072631;28;20208;-64
2022/03/02 08:43:39;;;;;;;12.18;6.57;;;3.40;94.40;;;;;;5072710;28;20196;-64
2022/03/02 08:46:07;;;;;;;12.32;6.28;;;3.50;94.30;;;;;;5072665;28;20172;-64
2022/03/02 08:48:33;;;;;;;11.57;6.43;;;3.50;94.20;;;;;;5072510;28;20181;-64
2022/03/02 08:51:00;;;;;;;11.40;6.75;;;3.70;93.40;;;;;;5072679;28;20536;-64
2022/03/02 08:53:26;;;;;;;10.63;6.22;;;3.70;93.10;;;;;;5072531;28;20177;-64
2022/03/02 08:55:54;;;;;;;12.00;6.40;;;3.80;92.80;;;;;;5072345;28;20269;-64
2022/03/02 08:58:20;;;;;;;9.32;6.07;;;3.80;92.90;;;;;;5072544;28;20187;-64
2022/03/02 09:00:46;;;;;;;10.80;6.85;;;4.00;92.80;;;;;;5072382;28;20176;-64
2022/03/02 09:03:15;;;;;;;12.15;7.13;;;4.00;92.60;;;;;;5072429;28;20220;-64
2022/03/02 09:05:42;;;;;;;10.57;6.45;;;4.10;92.10;;;;;;5072360;28;20180;-64
2022/03/02 09:08:08;;;;;;;9.60;6.18;;;4.20;91.60;;;;;;5072334;28;20176;-64
2022/03/02 09:10:35;;;;;;;15.82;6.50;;;4.30;91.40;;;;;;5072094;28;20169;-64
2022/03/02 09:13:02;;;;;;;21.95;7.82;;;4.40;91.70;;;;;;5072331;28;20181;-64
2022/03/02 09:15:28;;;;;;;22.55;9.45;;;4.50;91.70;;;;;;5072237;28;20259;-64
2022/03/02 09:17:53;;;;;;;22.10;9.07;;;4.60;91.60;;;;;;5072344;28;20215;-65
2022/03/02 09:20:19;;;;;;;23.55;9.63;;;4.70;91.70;;;;;;5072327;28;20181;-64
2022/03/02 09:22:45;;;;;;;18.40;8.38;;;4.70;91.40;;;;;;5072084;28;20198;-65
2022/03/02 09:25:11;;;;;;;14.25;8.30;;;4.70;91.00;;;;;;5072011;28;20180;-64
2022/03/02 09:27:36;;;;;;;11.48;6.93;;;4.70;90.90;;;;;;5072085;28;20200;-64
2022/03/02 09:30:07;;;;;;;12.38;6.72;;;4.70;90.80;;;;;;5071559;28;20176;-64
2022/03/02 09:32:33;;;;;;;13.60;7.07;;;4.80;90.90;;;;;;5071863;28;20173;-65
2022/03/02 09:34:59;;;;;;;13.93;6.93;;;4.80;90.80;;;;;;5071893;28;20690;-65
2022/03/02 09:37:27;;;;;;;10.98;6.25;;;4.90;90.70;;;;;;5072071;28;20177;-65
2022/03/02 09:39:54;;;;;;;11.18;6.65;;;5.00;90.10;;;;;;5071986;28;20243;-64
2022/03/02 09:42:32;;;;;;;9.90;6.45;;;5.20;90.00;;;;;;5072077;28;20216;-65
2022/03/02 09:45:05;;;;;;;9.52;6.22;;;5.30;88.30;;;;;;5072035;28;20241;-65
2022/03/02 09:47:56;;;;;;;12.05;6.63;;;5.40;87.50;;;;;;5071939;28;20183;-65
2022/03/02 09:50:24;;;;;;;10.10;6.15;;;5.60;87.40;;;;;;5072063;28;20263;-65
2022/03/02 09:52:52;;;;;;;10.23;5.80;;;5.70;85.80;;;;;;5071777;28;20180;-64
2022/03/02 09:55:23;;;;;;;12.95;6.95;;;5.80;85.10;;;;;;5071833;28;20212;-65
2022/03/02 09:57:54;;;;;;;11.80;6.78;;;5.90;85.60;;;;;;5071815;28;20713;-65
2022/03/02 10:00:22;;;;;;;10.13;6.70;;;6.00;84.30;;;;;;5072018;28;20619;-64
2022/03/02 10:02:51;;;;;;;11.45;6.95;;;6.00;84.40;;;;;;5071659;28;20282;-65
2022/03/02 10:05:23;;;;;;;11.45;6.63;;;6.10;85.10;;;;;;5071888;28;20272;-65
2022/03/02 10:07:58;;;;;;;13.07;6.93;;;6.10;84.10;;;;;;5071768;28;20169;-65
2022/03/02 10:10:24;;;;;;;16.50;7.88;;;6.00;84.10;;;;;;5071748;28;20180;-64
2022/03/02 10:12:53;;;;;;;14.70;6.90;;;5.90;84.50;;;;;;5071677;28;20196;-64
2022/03/02 10:15:19;;;;;;;9.65;6.50;;;5.90;85.20;;;;;;5071700;28;20687;-65
2022/03/02 10:17:48;;;;;;;9.70;5.97;;;5.90;84.30;;;;;;5071734;28;20169;-64
2022/03/02 10:20:24;;;;;;;9.05;5.97;;;5.80;84.50;;;;;;5071635;28;20200;-64
2022/03/02 10:23:22;;;;;;;11.80;6.60;;;5.70;84.30;;;;;;5071613;28;20253;-64
2022/03/02 10:25:57;;;;;;;14.18;6.90;;;5.60;84.50;;;;;;5058348;28;20173;-65
2022/03/02 10:28:47;;;;;;;12.02;6.95;;;5.60;85.00;;;;;;5050337;28;20535;-65
2022/03/02 10:31:23;;;;;;;13.23;7.07;;;5.50;84.80;;;;;;5047370;28;20190;-64
2022/03/02 10:33:57;;;;;;;10.43;6.25;;;5.40;84.90;;;;;;5051385;28;20180;-64
2022/03/02 10:36:26;;;;;;;14.38;6.65;;;5.40;85.70;;;;;;5051481;28;20582;-64
2022/03/02 10:38:58;;;;;;;9.93;6.28;;;5.50;86.00;;;;;;5051380;28;20641;-64
2022/03/02 10:41:29;;;;;;;11.30;6.47;;;5.70;85.80;;;;;;5051371;28;20181;-65
2022/03/02 10:43:59;;;;;;;11.05;6.70;;;5.80;85.30;;;;;;5054261;28;20166;-64
2022/03/02 10:46:26;;;;;;;12.80;6.32;;;5.90;84.30;;;;;;5054859;28;20181;-64
2022/03/02 10:49:02;;;;;;;9.70;6.40;;;5.90;84.60;;;;;;5054799;28;20718;-64
2022/03/02 10:51:30;;;;;;;11.20;6.35;;;6.10;83.90;;;;;;5054777;28;20529;-64
2022/03/02 10:53:56;;;;;;;11.40;6.50;;;6.20;83.20;;;;;;5054684;28;20181;-64
2022/03/02 10:56:26;;;;;;;9.30;6.20;;;6.20;82.90;;;;;;5054789;28;20248;-65
2022/03/02 10:58:54;;;;;;;10.77;6.20;;;6.30;82.90;;;;;;5054756;28;20390;-65
2022/03/02 11:01:20;;;;;;;12.30;6.43;;;6.30;83.40;;;;;;5054740;28;20224;-65
2022/03/02 11:03:46;;;;;;;14.85;6.78;;;6.40;81.90;;;;;;5054436;28;20218;-65
2022/03/02 11:06:12;;;;;;;10.63;6.30;;;6.50;81.90;;;;;;5054492;28;20177;-65
2022/03/02 11:08:41;;;;;;;10.45;6.35;;;6.60;81.10;;;;;;5054549;28;20174;-65
2022/03/02 11:11:09;;;;;;;10.88;6.30;;;6.70;80.60;;;;;;5054334;28;20177;-65
2022/03/02 11:13:35;;;;;;;8.85;5.85;;;6.70;80.40;;;;;;5054492;28;20204;-65
2022/03/02 11:16:03;;;;;;;9.57;6.20;;;6.90;80.40;;;;;;5054440;28;20252;-65
2022/03/02 11:18:48;;;;;;;11.07;6.70;;;7.10;79.40;;;;;;5054338;28;20169;-65
2022/03/02 11:21:17;;;;;;;13.15;6.80;;;7.40;78.10;;;;;;5054428;28;20182;-65
2022/03/02 11:23:45;;;;;;;9.60;6.35;;;7.50;76.80;;;;;;5054214;28;20185;-65
2022/03/02 11:26:14;;;;;;;11.98;7.25;;;7.70;76.30;;;;;;5070410;28;20656;-65
2022/03/02 11:28:48;;;;;;;11.63;7.15;;;7.70;75.90;;;;;;5074177;28;20181;-65
2022/03/02 11:31:21;;;;;;;10.68;6.57;;;7.80;75.20;;;;;;5074663;28;20219;-65
2022/03/02 11:33:47;;;;;;;10.10;6.60;;;7.70;74.40;;;;;;5074224;28;20189;-65
2022/03/02 11:36:17;;;;;;;11.32;6.05;;;7.60;74.30;;;;;;5074049;28;20220;-65
2022/03/02 11:38:45;;;;;;;11.85;6.07;;;7.60;74.50;;;;;;5074041;28;20176;-65
2022/03/02 11:41:12;;;;;;;11.43;6.55;;;7.50;74.70;;;;;;5073962;28;20181;-64
2022/03/02 11:43:39;;;;;;;11.10;6.28;;;7.40;75.40;;;;;;5073921;28;20271;-64
2022/03/02 11:46:07;;;;;;;9.60;6.38;;;7.40;73.50;;;;;;5073999;28;20537;-65
2022/03/02 11:48:37;;;;;;;10.20;6.35;;;7.30;73.20;;;;;;5073797;28;20177;-65
2022/03/02 11:51:06;;;;;;;13.38;6.10;;;7.30;72.40;;;;;;5073826;28;20239;-65
2022/03/02 11:53:40;;;;;;;10.80;6.28;;;7.30;72.60;;;;;;5073236;28;20199;-65
2022/03/02 11:56:09;;;;;;;11.00;6.30;;;7.40;70.90;;;;;;5073621;28;20208;-65
2022/03/02 11:59:01;;;;;;;12.95;6.47;;;7.40;70.00;;;;;;5073600;28;20255;-65
2022/03/02 12:01:41;;;;;;;9.90;6.40;;;7.50;70.50;;;;;;5073489;28;20234;-65
2022/03/02 12:04:09;;;;;;;9.32;6.60;;;7.40;70.90;;;;;;5073386;28;20254;-65
2022/03/02 12:06:42;;;;;;;9.10;6.47;;;7.40;72.10;;;;;;5073430;28;20571;-65
2022/03/02 12:09:08;;;;;;;13.65;6.85;;;7.40;73.00;;;;;;5073383;28;20179;-65
2022/03/02 12:11:38;;;;;;;11.65;6.30;;;7.30;73.50;;;;;;5073390;28;20251;-66
2022/03/02 12:14:08;;;;;;;11.15;6.55;;;7.30;74.60;;;;;;5073538;28;20185;-65
2022/03/02 12:16:42;;;;;;;11.90;7.05;;;7.30;74.90;;;;;;5073127;28;20260;-65
2022/03/02 12:19:25;;;;;;;12.77;7.90;;;7.30;74.20;;;;;;5073224;28;20263;-65
2022/03/02 12:21:59;;;;;;;17.27;9.32;;;7.10;74.70;;;;;;5072979;28;20199;-64
2022/03/02 12:24:28;;;;;;;14.73;8.27;;;7.00;74.80;;;;;;5071230;28;20186;-65
2022/03/02 12:27:04;;;;;;;9.93;5.93;;;7.00;75.20;;;;;;5053047;28;20201;-65
2022/03/02 12:29:31;;;;;;;10.10;6.25;;;6.90;75.10;;;;;;5052943;28;20177;-65
2022/03/02 12:32:17;;;;;;;12.50;7.05;;;6.80;75.40;;;;;;5052965;28;20184;-65
2022/03/02 12:34:46;;;;;;;16.40;8.23;;;6.90;76.40;;;;;;5052795;28;20224;-65
2022/03/02 12:37:13;;;;;;;14.40;7.32;;;7.00;75.60;;;;;;5052950;28;20200;-64
2022/03/02 12:39:40;;;;;;;15.25;7.85;;;7.10;74.90;;;;;;5053165;28;20231;-65
2022/03/02 12:42:08;;;;;;;15.23;8.20;;;7.20;74.40;;;;;;5052685;28;20189;-65
2022/03/02 12:44:55;;;;;;;13.45;7.80;;;7.30;72.80;;;;;;5052744;28;20189;-65
2022/03/02 12:47:24;;;;;;;10.85;7.22;;;7.30;72.30;;;;;;5052641;28;20629;-65
2022/03/02 12:49:50;;;;;;;12.23;6.93;;;7.40;72.40;;;;;;5052411;28;20213;-65